Time;durP1;ratioP1;P1;durP2;ratioP2;P2;SDS_P1;SDS_P2;PMS_P1;PMS_P2;Temp;Humidity;BMP_temperature;BMP_pressure;BME280_temperature;BME280_humidity;BME280_pressure;Samples;Min_cycle;Max_cycle;Signal;HPM_P1;HPM_P2
2022/08/25 00:02:11;;;;;;;2.00;1.60;;;24.80;55.90;;;;;;4893327;29;20198;-70
2022/08/25 00:04:39;;;;;;;1.73;1.40;;;24.80;56.40;;;;;;4909650;29;20375;-71
2022/08/25 00:07:05;;;;;;;2.08;1.70;;;24.70;55.80;;;;;;4901571;29;20207;-70
2022/08/25 00:09:34;;;;;;;3.55;1.70;;;24.70;56.40;;;;;;4899881;29;20171;-71
2022/08/25 00:12:01;;;;;;;2.20;1.73;;;24.70;56.00;;;;;;4892915;29;20247;-70
2022/08/25 00:14:32;;;;;;;3.28;1.60;;;24.70;56.10;;;;;;4899249;29;20293;-71
2022/08/25 00:17:00;;;;;;;2.00;1.60;;;24.60;56.20;;;;;;4900428;29;20198;-71
2022/08/25 00:19:35;;;;;;;2.55;1.55;;;24.60;56.10;;;;;;4921667;29;20190;-70
2022/08/25 00:22:02;;;;;;;2.40;1.60;;;24.60;56.60;;;;;;4891242;29;20209;-70
2022/08/25 00:24:28;;;;;;;2.60;1.67;;;24.60;56.30;;;;;;4901562;29;20171;-70
2022/08/25 00:26:58;;;;;;;1.90;1.48;;;24.60;56.40;;;;;;4896617;29;20222;-71
2022/08/25 00:29:25;;;;;;;1.92;1.58;;;24.50;56.50;;;;;;4903202;29;20174;-70
2022/08/25 00:31:52;;;;;;;1.63;1.48;;;24.50;57.10;;;;;;4901417;29;20175;-70
2022/08/25 00:34:21;;;;;;;3.28;1.63;;;24.50;56.60;;;;;;4901272;29;20242;-72
2022/08/25 00:36:50;;;;;;;3.05;1.60;;;24.50;56.90;;;;;;4888861;29;20171;-72
2022/08/25 00:39:20;;;;;;;1.77;1.48;;;24.40;56.70;;;;;;4914702;29;20242;-71
2022/08/25 00:41:47;;;;;;;2.20;1.65;;;24.40;57.00;;;;;;4891018;29;20217;-71
2022/08/25 00:44:17;;;;;;;2.38;1.65;;;24.40;56.80;;;;;;4905683;29;20179;-72
2022/08/25 00:46:57;;;;;;;2.10;1.42;;;24.40;57.00;;;;;;4916354;29;20202;-70
2022/08/25 00:49:40;;;;;;;1.40;1.27;;;24.30;57.40;;;;;;4910408;29;20181;-72
2022/08/25 00:52:13;;;;;;;1.85;1.50;;;24.30;57.90;;;;;;4891924;29;20198;-71
2022/08/25 00:54:48;;;;;;;3.10;1.50;;;24.30;57.30;;;;;;4891399;29;20186;-71
2022/08/25 00:57:17;;;;;;;2.75;1.65;;;24.20;57.20;;;;;;4900153;29;20224;-71
2022/08/25 00:59:48;;;;;;;2.55;1.58;;;24.20;57.20;;;;;;4902549;29;20246;-72
2022/08/25 01:02:14;;;;;;;2.63;1.35;;;24.20;57.20;;;;;;4905147;29;20174;-71
2022/08/25 01:04:45;;;;;;;1.65;1.33;;;24.20;57.30;;;;;;4885965;29;20195;-72
2022/08/25 01:07:13;;;;;;;2.10;1.58;;;24.10;57.30;;;;;;4899209;29;20190;-71
2022/08/25 01:09:40;;;;;;;1.80;1.58;;;24.10;57.40;;;;;;4916172;29;20178;-71
2022/08/25 01:12:09;;;;;;;1.77;1.50;;;24.10;57.40;;;;;;4915362;29;20223;-69
2022/08/25 01:14:37;;;;;;;1.52;1.42;;;24.10;58.20;;;;;;4890832;29;20183;-65
2022/08/25 01:17:03;;;;;;;1.67;1.58;;;24.10;57.80;;;;;;4901727;29;20210;-69
2022/08/25 01:19:32;;;;;;;2.55;1.45;;;24.00;57.60;;;;;;4911407;29;20298;-71
2022/08/25 01:22:01;;;;;;;2.65;1.77;;;24.00;57.80;;;;;;4896460;29;22324;-72
2022/08/25 01:24:37;;;;;;;2.65;1.77;;;23.90;57.70;;;;;;4893269;29;20189;-71
2022/08/25 01:27:08;;;;;;;1.92;1.52;;;23.90;58.20;;;;;;4899256;29;20245;-72
2022/08/25 01:29:35;;;;;;;2.40;1.90;;;23.90;58.10;;;;;;4898988;29;20270;-69
2022/08/25 01:32:06;;;;;;;2.97;2.10;;;23.90;58.00;;;;;;4915117;29;20278;-69
2022/08/25 01:34:39;;;;;;;3.15;2.00;;;23.80;58.10;;;;;;4887784;29;20207;-69
2022/08/25 01:37:07;;;;;;;3.10;2.03;;;23.80;58.20;;;;;;4896888;29;20179;-69
2022/08/25 01:39:35;;;;;;;5.07;2.42;;;23.80;58.20;;;;;;4897881;29;20190;-70
2022/08/25 01:42:13;;;;;;;3.75;2.35;;;23.70;58.30;;;;;;4910214;29;20259;-71
2022/08/25 01:44:46;;;;;;;3.17;2.30;;;23.70;58.80;;;;;;4891570;29;20182;-71
2022/08/25 01:47:15;;;;;;;3.25;2.20;;;23.70;58.70;;;;;;4892371;29;20214;-71
2022/08/25 01:49:41;;;;;;;3.35;2.50;;;23.60;58.50;;;;;;4903136;29;20364;-71
2022/08/25 01:52:23;;;;;;;3.95;2.38;;;23.60;58.70;;;;;;4898826;29;20206;-68
2022/08/25 01:54:51;;;;;;;3.67;2.50;;;23.60;59.40;;;;;;4915821;29;20179;-70
2022/08/25 01:57:17;;;;;;;3.17;2.30;;;23.60;58.90;;;;;;4898456;29;20190;-70
2022/08/25 01:59:46;;;;;;;3.83;2.22;;;23.50;58.90;;;;;;4913378;29;20183;-67
2022/08/25 02:02:16;;;;;;;3.05;2.17;;;23.50;59.20;;;;;;4898157;29;20179;-70
2022/08/25 02:04:47;;;;;;;2.67;2.30;;;23.40;59.00;;;;;;4914232;29;20213;-69
2022/08/25 02:07:13;;;;;;;3.10;2.25;;;23.40;59.20;;;;;;4900021;29;20257;-71
2022/08/25 02:09:43;;;;;;;4.90;2.47;;;23.40;59.40;;;;;;4904319;29;20398;-70
2022/08/25 02:12:09;;;;;;;3.00;2.30;;;23.30;59.80;;;;;;4896635;29;20279;-71
2022/08/25 02:14:36;;;;;;;4.10;2.58;;;23.30;59.80;;;;;;4912887;29;20270;-70
2022/08/25 02:17:02;;;;;;;5.45;2.78;;;23.30;60.20;;;;;;4899308;29;20203;-70
2022/08/25 02:19:30;;;;;;;5.00;2.40;;;23.20;60.20;;;;;;4899837;29;20178;-70
2022/08/25 02:21:58;;;;;;;3.90;2.25;;;23.20;60.50;;;;;;4898950;29;20214;-70
2022/08/25 02:24:23;;;;;;;2.58;2.05;;;23.20;60.70;;;;;;4892469;29;20602;-71
2022/08/25 02:26:51;;;;;;;2.65;1.92;;;23.20;60.90;;;;;;4899221;29;20266;-70
2022/08/25 02:29:17;;;;;;;3.65;2.15;;;23.10;61.00;;;;;;4898689;29;20240;-70
2022/08/25 02:31:43;;;;;;;3.83;2.22;;;23.10;61.20;;;;;;4899600;29;20179;-71
2022/08/25 02:34:10;;;;;;;5.25;2.20;;;23.10;61.40;;;;;;4907021;29;20183;-71
2022/08/25 02:36:37;;;;;;;2.80;2.10;;;23.00;61.60;;;;;;4891510;29;20256;-71
2022/08/25 02:39:05;;;;;;;2.75;2.20;;;23.00;61.90;;;;;;4898803;29;20191;-70
2022/08/25 02:41:32;;;;;;;2.92;2.30;;;22.90;62.10;;;;;;4898522;29;20202;-70
2022/08/25 02:43:59;;;;;;;2.45;2.03;;;22.90;62.30;;;;;;4899234;29;20175;-70
2022/08/25 02:46:25;;;;;;;3.17;2.40;;;22.90;62.50;;;;;;4889565;29;20448;-70
2022/08/25 02:48:51;;;;;;;3.13;2.20;;;22.80;62.60;;;;;;4913799;29;20214;-70
2022/08/25 02:51:22;;;;;;;2.47;2.00;;;22.80;62.90;;;;;;4910864;29;20184;-69
2022/08/25 02:53:48;;;;;;;3.45;2.50;;;22.70;63.10;;;;;;4900666;29;20232;-71
2022/08/25 02:56:20;;;;;;;2.65;2.22;;;22.70;63.30;;;;;;4897804;29;20277;-69
2022/08/25 02:58:46;;;;;;;2.17;1.98;;;22.70;63.70;;;;;;4898612;29;20186;-70
2022/08/25 03:01:13;;;;;;;2.92;2.20;;;22.60;63.70;;;;;;4891965;29;20214;-71
2022/08/25 03:03:43;;;;;;;3.35;2.15;;;22.60;64.00;;;;;;4894357;29;20209;-71
2022/08/25 03:06:11;;;;;;;2.85;2.00;;;22.50;64.10;;;;;;4914093;29;20205;-72
2022/08/25 03:08:40;;;;;;;2.45;1.90;;;22.50;64.40;;;;;;4913623;29;20202;-70
2022/08/25 03:11:10;;;;;;;2.50;1.77;;;22.50;64.90;;;;;;4888598;29;20183;-70
2022/08/25 03:13:36;;;;;;;4.07;2.00;;;22.50;65.20;;;;;;4898473;29;20244;-69
2022/08/25 03:16:03;;;;;;;2.15;1.88;;;22.50;65.00;;;;;;4916594;29;20193;-67
2022/08/25 03:18:31;;;;;;;2.72;1.80;;;22.50;65.20;;;;;;4910972;29;20277;-71
2022/08/25 03:21:00;;;;;;;2.15;1.95;;;22.50;65.80;;;;;;4898429;29;20216;-70
2022/08/25 03:23:28;;;;;;;2.40;1.95;;;22.50;65.60;;;;;;4915201;29;20179;-71
2022/08/25 03:28:43;;;;;;;4.88;4.03;;;22.50;66.20;;;;;;4898490;29;20189;-70
2022/08/25 03:31:09;;;;;;;4.65;4.03;;;22.50;66.70;;;;;;4900136;29;20206;-68
2022/08/25 03:33:36;;;;;;;3.85;2.72;;;22.50;66.30;;;;;;4905025;29;20274;-70
2022/08/25 03:36:03;;;;;;;3.63;2.20;;;22.50;66.40;;;;;;4916800;29;21285;-70
2022/08/25 03:38:33;;;;;;;3.20;2.58;;;22.50;66.60;;;;;;4911829;29;20204;-70
2022/08/25 03:41:09;;;;;;;9.48;6.28;;;22.50;66.70;;;;;;4899147;29;20213;-70
2022/08/25 03:43:35;;;;;;;4.72;4.13;;;22.40;67.20;;;;;;4906006;29;20197;-70
2022/08/25 03:46:03;;;;;;;4.53;3.47;;;22.40;67.00;;;;;;4892847;29;20223;-66
2022/08/25 03:48:28;;;;;;;3.08;2.78;;;22.40;67.50;;;;;;4916585;29;20179;-69
2022/08/25 03:50:54;;;;;;;2.75;2.42;;;22.40;67.30;;;;;;4912864;29;20195;-67
2022/08/25 03:53:19;;;;;;;3.92;2.53;;;22.40;67.50;;;;;;4916494;29;20420;-69
2022/08/25 03:55:45;;;;;;;3.05;2.70;;;22.40;67.70;;;;;;4896471;29;20221;-69
2022/08/25 03:58:11;;;;;;;5.32;4.57;;;22.40;68.00;;;;;;4901173;29;20182;-70
2022/08/25 04:00:39;;;;;;;8.90;3.28;;;22.40;68.90;;;;;;4900537;29;20211;-70
2022/08/25 04:03:05;;;;;;;3.10;2.30;;;22.40;68.90;;;;;;4905452;29;20236;-69
2022/08/25 04:05:31;;;;;;;3.08;2.20;;;22.40;68.70;;;;;;4903087;29;20171;-70
2022/08/25 04:08:00;;;;;;;3.15;2.47;;;22.40;68.80;;;;;;4901569;29;20214;-70
2022/08/25 04:10:28;;;;;;;2.38;2.17;;;22.30;68.90;;;;;;4901632;29;20186;-69
2022/08/25 04:12:54;;;;;;;3.47;2.58;;;22.30;69.10;;;;;;4916953;29;20183;-69
2022/08/25 04:15:20;;;;;;;3.17;2.20;;;22.30;69.50;;;;;;4908764;29;20179;-70
2022/08/25 04:17:46;;;;;;;4.15;2.20;;;22.30;69.90;;;;;;4900708;29;20186;-69
2022/08/25 04:20:12;;;;;;;2.92;2.22;;;22.30;70.00;;;;;;4896390;29;20210;-70
2022/08/25 04:22:37;;;;;;;2.63;2.22;;;22.30;70.20;;;;;;4907343;29;20178;-70
2022/08/25 04:25:05;;;;;;;4.25;3.33;;;22.30;70.50;;;;;;4916225;29;20175;-71
2022/08/25 04:27:30;;;;;;;13.38;10.35;;;22.20;70.70;;;;;;4896298;29;20238;-70
2022/08/25 04:30:01;;;;;;;12.80;8.73;;;22.20;71.00;;;;;;4916513;29;20187;-70
2022/08/25 04:32:31;;;;;;;7.47;6.05;;;22.20;71.70;;;;;;4901145;29;20202;-70
2022/08/25 04:34:59;;;;;;;6.40;4.45;;;22.20;72.60;;;;;;4901634;29;20262;-70
2022/08/25 04:37:27;;;;;;;6.25;3.67;;;22.20;71.80;;;;;;4889616;29;20231;-70
2022/08/25 04:39:55;;;;;;;3.33;2.80;;;22.20;72.50;;;;;;4907176;29;20178;-70
2022/08/25 04:42:26;;;;;;;3.35;2.53;;;22.10;72.20;;;;;;4936142;29;20180;-71
2022/08/25 04:44:54;;;;;;;4.22;2.20;;;22.10;73.00;;;;;;4936298;29;20166;-71
2022/08/25 04:47:19;;;;;;;4.25;3.17;;;22.10;72.90;;;;;;4924624;29;20187;-72
2022/08/25 04:49:45;;;;;;;5.15;4.65;;;22.00;72.90;;;;;;4901698;29;20225;-70
2022/08/25 04:52:13;;;;;;;4.03;3.63;;;22.00;73.10;;;;;;4918215;29;20278;-71
2022/08/25 04:54:39;;;;;;;5.30;3.30;;;22.00;74.10;;;;;;4916510;29;20210;-70
2022/08/25 04:57:05;;;;;;;4.32;3.00;;;22.00;73.60;;;;;;4906748;29;20200;-71
2022/08/25 04:59:31;;;;;;;2.97;2.60;;;22.00;74.10;;;;;;4922717;29;20182;-71
2022/08/25 05:02:04;;;;;;;5.35;2.47;;;22.00;74.40;;;;;;4899915;29;20238;-71
2022/08/25 05:04:31;;;;;;;3.08;2.53;;;21.90;74.70;;;;;;4902027;29;20210;-71
2022/08/25 05:06:57;;;;;;;3.53;2.20;;;21.90;74.90;;;;;;4906322;29;20233;-70
2022/08/25 05:09:23;;;;;;;3.92;2.58;;;21.90;75.10;;;;;;4884953;29;20242;-71
2022/08/25 05:11:51;;;;;;;2.97;2.38;;;21.90;75.40;;;;;;4902013;29;20197;-73
2022/08/25 05:14:22;;;;;;;3.63;2.30;;;21.90;75.70;;;;;;4917195;29;20178;-71
2022/08/25 05:16:52;;;;;;;2.95;2.25;;;21.90;76.70;;;;;;4898644;29;20182;-73
2022/08/25 05:19:18;;;;;;;2.47;1.83;;;21.90;76.40;;;;;;4899098;29;20202;-72
2022/08/25 05:21:46;;;;;;;3.08;2.08;;;21.90;76.50;;;;;;4917520;29;20216;-72
2022/08/25 05:24:12;;;;;;;3.55;2.10;;;21.90;76.80;;;;;;4913232;29;20190;-71
2022/08/25 05:26:38;;;;;;;3.42;2.13;;;22.00;76.90;;;;;;4898339;29;20230;-72
2022/08/25 05:29:07;;;;;;;3.03;2.00;;;22.00;77.00;;;;;;4917503;29;20280;-72
2022/08/25 05:31:37;;;;;;;2.25;2.00;;;22.00;77.20;;;;;;4891400;29;20207;-71
2022/08/25 05:34:10;;;;;;;2.30;1.85;;;22.00;77.70;;;;;;4907619;29;20227;-73
2022/08/25 05:36:37;;;;;;;3.47;1.88;;;22.00;78.10;;;;;;4914740;29;20186;-71
2022/08/25 05:39:05;;;;;;;3.03;2.00;;;22.00;77.70;;;;;;4915093;29;20182;-72
2022/08/25 05:41:32;;;;;;;3.13;2.08;;;22.10;78.10;;;;;;4902199;29;20194;-72
2022/08/25 05:44:00;;;;;;;4.28;2.10;;;22.10;78.20;;;;;;4893781;29;20198;-71
2022/08/25 05:46:25;;;;;;;2.97;2.10;;;22.10;78.40;;;;;;4913668;29;20214;-73
2022/08/25 05:48:54;;;;;;;2.10;1.90;;;22.10;78.70;;;;;;4914204;29;20253;-71
2022/08/25 05:51:20;;;;;;;2.35;2.10;;;22.10;78.90;;;;;;4897594;29;20211;-72
2022/08/25 05:53:49;;;;;;;2.40;2.10;;;22.10;79.00;;;;;;4898169;29;20183;-73
2022/08/25 05:56:20;;;;;;;2.47;2.22;;;22.20;79.40;;;;;;4890941;29;20227;-72
2022/08/25 05:58:46;;;;;;;3.67;2.20;;;22.20;79.60;;;;;;4898118;29;20434;-73
2022/08/25 06:04:19;;;;;;;3.22;2.00;;;22.20;80.20;;;;;;4900073;29;20236;-73
2022/08/25 06:06:45;;;;;;;2.67;1.95;;;22.30;79.30;;;;;;4914401;29;20199;-73
2022/08/25 06:09:11;;;;;;;7.93;2.38;;;22.30;79.30;;;;;;4914666;29;20210;-73
2022/08/25 06:11:38;;;;;;;3.58;1.70;;;22.40;79.80;;;;;;4894619;29;20214;-74
2022/08/25 06:14:04;;;;;;;3.47;2.13;;;22.30;79.70;;;;;;4899025;29;20237;-72
2022/08/25 06:16:30;;;;;;;2.70;2.17;;;22.30;79.70;;;;;;4898786;29;20206;-73
2022/08/25 06:18:55;;;;;;;2.88;2.00;;;22.40;80.10;;;;;;4914700;29;20178;-73
2022/08/25 06:21:21;;;;;;;3.08;2.03;;;22.40;80.20;;;;;;4900141;29;20229;-73
2022/08/25 06:23:48;;;;;;;2.90;1.90;;;22.40;80.60;;;;;;4915855;29;20190;-73
2022/08/25 06:26:18;;;;;;;3.90;2.15;;;22.50;80.70;;;;;;4914979;29;20210;-71
2022/08/25 06:28:44;;;;;;;3.50;2.00;;;22.50;81.40;;;;;;4914922;29;20178;-73
2022/08/25 06:31:09;;;;;;;3.28;1.95;;;22.50;81.00;;;;;;4898845;29;20193;-72
2022/08/25 06:33:38;;;;;;;3.03;2.00;;;22.60;81.30;;;;;;4914769;29;20186;-72
2022/08/25 06:36:06;;;;;;;3.42;2.03;;;22.60;81.50;;;;;;4905156;29;20185;-73
2022/08/25 06:38:32;;;;;;;2.50;2.03;;;22.70;81.30;;;;;;4907177;29;20183;-73
2022/08/25 06:41:00;;;;;;;3.72;2.20;;;22.80;81.40;;;;;;4914249;29;20225;-73
2022/08/25 06:43:28;;;;;;;2.92;2.22;;;22.80;81.60;;;;;;4914834;29;20192;-74
2022/08/25 06:45:54;;;;;;;3.88;2.30;;;22.90;82.00;;;;;;4898974;29;20179;-73
2022/08/25 06:48:22;;;;;;;5.18;2.47;;;22.90;81.70;;;;;;4908848;29;20175;-73
2022/08/25 06:50:48;;;;;;;3.92;2.03;;;23.00;81.80;;;;;;4898772;29;20200;-73
2022/08/25 06:53:14;;;;;;;4.30;1.92;;;23.10;81.90;;;;;;4914547;29;20341;-72
2022/08/25 06:55:42;;;;;;;4.18;2.28;;;23.10;81.90;;;;;;4898699;29;20179;-73
2022/08/25 06:58:10;;;;;;;2.08;1.88;;;23.20;81.90;;;;;;4914376;29;20273;-73
2022/08/25 07:00:38;;;;;;;4.13;2.03;;;23.30;81.90;;;;;;4899005;29;20305;-74
2022/08/25 07:03:06;;;;;;;3.72;1.90;;;23.40;82.20;;;;;;4902436;29;20234;-73
2022/08/25 07:05:32;;;;;;;2.55;1.90;;;23.40;82.00;;;;;;4898765;29;20185;-73
2022/08/25 07:08:00;;;;;;;5.10;2.30;;;23.50;82.20;;;;;;4918453;29;20186;-74
2022/08/25 07:10:25;;;;;;;3.97;2.25;;;23.60;82.40;;;;;;4918083;29;20183;-74
2022/08/25 07:12:53;;;;;;;3.45;2.08;;;23.60;82.30;;;;;;4902441;29;20182;-73
2022/08/25 07:15:19;;;;;;;2.22;1.85;;;23.70;82.10;;;;;;4886059;29;20286;-73
2022/08/25 07:17:45;;;;;;;2.45;2.20;;;23.80;82.20;;;;;;4902662;29;20203;-73
2022/08/25 07:20:11;;;;;;;2.45;2.17;;;23.90;82.30;;;;;;4902541;29;20206;-74
2022/08/25 07:22:39;;;;;;;4.05;2.33;;;24.00;82.40;;;;;;4910187;29;20186;-73
2022/08/25 07:25:05;;;;;;;5.93;2.35;;;24.10;82.40;;;;;;4902756;29;20258;-73
2022/08/25 07:27:31;;;;;;;3.17;2.35;;;24.20;82.70;;;;;;4913774;29;20247;-73
2022/08/25 07:29:59;;;;;;;2.70;2.40;;;24.30;82.70;;;;;;4902172;29;20210;-74
2022/08/25 07:32:25;;;;;;;3.90;2.38;;;24.30;82.70;;;;;;4902628;29;20211;-74
2022/08/25 07:37:37;;;;;;;5.13;2.58;;;24.50;82.60;;;;;;4902913;29;20177;-74
2022/08/25 07:40:04;;;;;;;3.28;2.60;;;24.70;82.90;;;;;;4917607;29;20265;-74
2022/08/25 07:42:29;;;;;;;5.80;2.80;;;24.80;82.70;;;;;;4889463;29;20190;-75
2022/08/25 07:44:57;;;;;;;4.57;2.60;;;24.90;82.60;;;;;;4902012;29;20179;-74
2022/08/25 07:47:23;;;;;;;4.93;2.42;;;25.00;82.50;;;;;;4909610;29;20213;-73
2022/08/25 07:49:48;;;;;;;3.47;2.80;;;25.10;82.50;;;;;;4936858;29;20215;-74
2022/08/25 07:52:16;;;;;;;4.05;3.40;;;25.20;82.30;;;;;;4919784;29;20211;-74
2022/08/25 07:54:42;;;;;;;5.93;3.00;;;25.30;82.20;;;;;;4903431;29;20174;-74
2022/08/25 07:57:08;;;;;;;4.22;2.70;;;25.40;82.00;;;;;;4917710;29;20182;-75
2022/08/25 07:59:41;;;;;;;4.93;2.88;;;25.50;82.00;;;;;;4901915;29;20206;-75
2022/08/25 08:02:12;;;;;;;4.47;2.58;;;25.60;81.90;;;;;;4901628;29;20442;-74
2022/08/25 08:04:37;;;;;;;4.68;2.60;;;25.70;81.90;;;;;;4901717;29;20198;-74
2022/08/25 08:07:05;;;;;;;5.00;2.72;;;25.70;81.70;;;;;;4917214;29;20182;-74
2022/08/25 08:09:31;;;;;;;3.22;2.75;;;25.80;81.70;;;;;;4917461;29;20175;-74
2022/08/25 08:11:57;;;;;;;3.00;2.58;;;25.90;81.70;;;;;;4917209;29;20320;-74
2022/08/25 08:14:23;;;;;;;3.10;2.28;;;26.10;81.70;;;;;;4917433;29;20186;-73
2022/08/25 08:16:48;;;;;;;4.63;2.40;;;26.10;81.50;;;;;;4902157;29;20171;-74
2022/08/25 08:19:16;;;;;;;3.40;2.70;;;26.20;81.40;;;;;;4917624;29;20242;-74
2022/08/25 08:21:42;;;;;;;2.95;2.58;;;26.30;81.40;;;;;;4914448;29;20210;-73
2022/08/25 08:24:13;;;;;;;4.25;2.70;;;26.40;81.30;;;;;;4933820;29;20213;-74
2022/08/25 08:26:38;;;;;;;3.28;2.97;;;26.50;81.10;;;;;;4902488;29;20179;-74
2022/08/25 08:29:04;;;;;;;2.85;2.50;;;26.60;80.80;;;;;;4901365;29;20174;-74
2022/08/25 08:31:33;;;;;;;3.13;2.58;;;26.70;80.70;;;;;;4902256;29;20253;-73
2022/08/25 08:33:58;;;;;;;3.15;2.60;;;26.70;80.50;;;;;;4915454;29;20273;-74
2022/08/25 08:36:27;;;;;;;4.05;2.80;;;26.80;80.50;;;;;;4935964;29;20244;-74
2022/08/25 08:38:53;;;;;;;6.30;2.70;;;26.90;80.40;;;;;;4923898;29;20183;-74
2022/08/25 08:44:21;;;;;;;5.63;3.00;;;27.10;80.30;;;;;;4903170;29;20270;-74
2022/08/25 08:47:04;;;;;;;4.45;2.80;;;27.20;80.00;;;;;;4917150;29;20181;-75
2022/08/25 08:49:44;;;;;;;3.40;2.75;;;27.20;79.70;;;;;;4900794;29;20216;-74
2022/08/25 08:52:16;;;;;;;4.35;2.95;;;27.40;79.30;;;;;;4916613;29;20411;-75
2022/08/25 08:54:45;;;;;;;4.00;2.83;;;27.40;79.10;;;;;;4916904;29;20177;-74
2022/08/25 08:57:15;;;;;;;3.30;3.00;;;27.50;78.80;;;;;;4902456;29;20187;-75
2022/08/25 08:59:52;;;;;;;3.25;2.35;;;27.60;78.80;;;;;;4910188;29;20241;-74
2022/08/25 09:02:34;;;;;;;2.72;2.53;;;27.70;79.20;;;;;;4909915;29;20244;-71
2022/08/25 09:05:08;;;;;;;3.15;2.83;;;27.80;78.40;;;;;;4900652;29;20280;-75
2022/08/25 09:07:47;;;;;;;3.10;2.80;;;27.90;78.50;;;;;;4915779;29;20209;-73
2022/08/25 09:10:14;;;;;;;2.58;2.38;;;28.00;78.20;;;;;;4916286;29;20182;-74
2022/08/25 09:13:09;;;;;;;3.67;2.50;;;28.10;78.40;;;;;;4908490;29;20178;-73
2022/08/25 09:18:40;;;;;;;2.72;2.08;;;28.30;77.40;;;;;;4904192;29;20193;-72
2022/08/25 09:21:21;;;;;;;2.70;2.38;;;28.50;77.20;;;;;;4925573;29;20211;-73
2022/08/25 09:24:37;;;;;;;2.50;2.13;;;28.60;76.30;;;;;;4905278;29;20194;-73
2022/08/25 09:27:19;;;;;;;2.83;2.35;;;28.70;76.20;;;;;;4904625;29;20180;-75
2022/08/25 09:29:48;;;;;;;2.72;2.40;;;28.80;76.30;;;;;;4895758;29;20233;-73
2022/08/25 09:32:16;;;;;;;2.92;2.30;;;28.90;76.30;;;;;;4932794;29;20187;-73
2022/08/25 09:34:48;;;;;;;2.83;2.40;;;29.00;76.30;;;;;;4916768;29;20178;-73
2022/08/25 09:37:14;;;;;;;3.25;2.53;;;29.10;75.30;;;;;;4899920;29;20190;-75
2022/08/25 09:39:42;;;;;;;3.08;2.40;;;29.20;75.40;;;;;;4915562;29;20229;-75
2022/08/25 09:42:08;;;;;;;4.20;2.40;;;29.30;75.20;;;;;;4884444;29;20223;-74
2022/08/25 09:44:44;;;;;;;3.22;2.53;;;29.40;75.00;;;;;;4914066;29;20342;-73
2022/08/25 09:47:26;;;;;;;4.40;2.63;;;29.50;74.00;;;;;;4915190;29;20206;-72
2022/08/25 09:50:00;;;;;;;3.83;2.60;;;29.60;74.10;;;;;;4900358;29;20186;-74
2022/08/25 09:52:36;;;;;;;2.63;2.42;;;29.70;73.10;;;;;;4916703;29;20185;-74
2022/08/25 09:55:07;;;;;;;2.70;2.50;;;29.80;73.10;;;;;;4888165;29;20242;-74
2022/08/25 09:57:42;;;;;;;2.65;2.33;;;29.90;72.90;;;;;;4890332;29;20182;-74
2022/08/25 10:00:14;;;;;;;3.22;2.80;;;30.00;72.80;;;;;;4899085;29;20213;-75
2022/08/25 10:02:42;;;;;;;2.80;2.55;;;30.10;71.70;;;;;;4909216;29;20214;-74
2022/08/25 10:05:20;;;;;;;2.90;2.60;;;30.20;71.40;;;;;;4915366;29;20197;-74
2022/08/25 10:07:59;;;;;;;3.03;2.72;;;30.40;70.00;;;;;;4900640;29;20197;-74
2022/08/25 10:10:33;;;;;;;2.78;2.58;;;30.70;68.40;;;;;;4886707;29;20183;-72
2022/08/25 10:13:00;;;;;;;3.08;2.75;;;31.10;69.10;;;;;;4924865;29;20213;-73
2022/08/25 10:15:36;;;;;;;3.47;2.80;;;31.60;68.20;;;;;;4915233;29;20218;-74
2022/08/25 10:18:24;;;;;;;3.67;2.72;;;32.10;66.60;;;;;;4897352;29;20174;-74
2022/08/25 10:21:11;;;;;;;3.13;2.83;;;32.70;63.10;;;;;;4900173;29;20214;-73
2022/08/25 10:23:56;;;;;;;3.25;2.50;;;33.20;62.80;;;;;;4916679;29;20173;-74
2022/08/25 10:26:46;;;;;;;3.67;2.78;;;33.60;60.10;;;;;;4916135;29;20210;-74
2022/08/25 10:29:27;;;;;;;2.55;2.35;;;34.00;62.40;;;;;;4915221;29;20186;-76
2022/08/25 10:32:03;;;;;;;2.60;2.40;;;34.50;61.30;;;;;;4900894;29;20180;-74
2022/08/25 10:34:44;;;;;;;3.85;2.72;;;34.70;61.00;;;;;;4896272;29;20208;-74
2022/08/25 10:37:22;;;;;;;2.10;1.90;;;35.10;59.40;;;;;;4900302;29;20182;-74
2022/08/25 10:40:04;;;;;;;2.33;2.13;;;35.40;59.20;;;;;;4913645;29;20288;-74
2022/08/25 10:43:01;;;;;;;2.70;2.47;;;35.60;58.80;;;;;;4903545;29;20197;-74
2022/08/25 10:45:43;;;;;;;3.65;2.35;;;35.70;57.00;;;;;;4902757;29;20185;-73
2022/08/25 10:49:03;;;;;;;2.53;2.20;;;35.70;57.60;;;;;;4903465;29;20178;-74
2022/08/25 10:51:54;;;;;;;2.35;2.15;;;35.80;56.70;;;;;;4921821;29;20272;-73
2022/08/25 10:54:39;;;;;;;2.20;2.00;;;36.00;56.10;;;;;;4912512;29;20190;-74
2022/08/25 10:57:11;;;;;;;2.33;2.13;;;36.20;55.10;;;;;;4917900;29;20190;-73
2022/08/25 10:59:51;;;;;;;2.40;2.20;;;36.30;55.40;;;;;;4902409;29;20205;-74
2022/08/25 11:02:50;;;;;;;2.90;2.55;;;36.30;54.20;;;;;;4906668;29;20233;-73
2022/08/25 11:05:23;;;;;;;2.38;2.17;;;36.50;54.70;;;;;;4927828;29;20186;-74
2022/08/25 11:08:08;;;;;;;2.60;2.40;;;36.50;55.50;;;;;;4914974;29;20194;-75
2022/08/25 11:11:07;;;;;;;3.53;2.47;;;36.50;54.10;;;;;;4919526;29;20192;-75
2022/08/25 11:13:49;;;;;;;2.50;2.30;;;36.60;53.40;;;;;;4895743;29;20170;-76
2022/08/25 11:16:20;;;;;;;2.47;2.28;;;36.60;53.30;;;;;;4902287;29;20177;-76
2022/08/25 11:19:04;;;;;;;2.35;2.15;;;36.70;52.70;;;;;;4908926;29;20249;-75
2022/08/25 11:22:03;;;;;;;2.47;2.28;;;36.70;52.50;;;;;;4904386;29;20202;-75
2022/08/25 11:24:49;;;;;;;2.15;1.90;;;36.70;52.40;;;;;;4917922;29;20193;-75
2022/08/25 11:27:29;;;;;;;2.65;2.30;;;36.70;52.60;;;;;;4917708;29;20170;-76
2022/08/25 11:30:07;;;;;;;2.30;2.10;;;36.60;50.90;;;;;;4899420;29;20177;-73
2022/08/25 11:32:34;;;;;;;2.03;1.85;;;36.60;52.00;;;;;;4901731;29;20198;-76
2022/08/25 11:35:02;;;;;;;3.22;2.30;;;36.60;52.50;;;;;;4901932;29;20185;-76
2022/08/25 11:37:30;;;;;;;3.42;2.03;;;36.50;51.00;;;;;;4902217;29;20189;-76
2022/08/25 11:39:59;;;;;;;2.20;2.00;;;36.40;50.90;;;;;;4918186;29;20273;-75
2022/08/25 11:42:44;;;;;;;1.95;1.75;;;36.30;50.20;;;;;;4903577;29;20206;-75
2022/08/25 11:45:31;;;;;;;2.00;1.80;;;36.30;49.80;;;;;;4903014;29;20205;-74
2022/08/25 11:48:20;;;;;;;3.83;2.10;;;36.10;50.00;;;;;;4920534;29;20170;-76
2022/08/25 11:51:06;;;;;;;2.95;2.10;;;36.00;48.80;;;;;;4889147;29;20201;-74
2022/08/25 11:53:37;;;;;;;2.28;1.92;;;36.00;49.40;;;;;;4901165;29;20177;-76
2022/08/25 11:56:11;;;;;;;2.30;1.90;;;36.00;50.70;;;;;;4902209;29;20170;-75
2022/08/25 11:58:45;;;;;;;2.50;2.30;;;36.10;50.30;;;;;;4888381;29;20197;-75
2022/08/25 12:01:31;;;;;;;2.35;2.15;;;36.20;50.90;;;;;;4917360;29;20205;-74
2022/08/25 12:04:35;;;;;;;3.00;2.10;;;36.30;50.40;;;;;;4898971;29;20195;-74
2022/08/25 12:07:09;;;;;;;2.45;2.13;;;36.30;50.00;;;;;;4900427;29;20177;-75
2022/08/25 12:09:50;;;;;;;2.20;2.00;;;36.40;50.60;;;;;;4885745;29;20187;-75
2022/08/25 12:12:27;;;;;;;3.35;2.08;;;36.60;50.10;;;;;;4916706;29;20185;-76
2022/08/25 12:14:53;;;;;;;3.05;2.20;;;36.70;50.10;;;;;;4915548;29;20190;-76
2022/08/25 12:17:28;;;;;;;2.38;2.05;;;36.80;50.40;;;;;;4917377;29;20218;-75
2022/08/25 12:19:57;;;;;;;2.75;2.20;;;36.90;50.60;;;;;;4917550;29;20188;-77
2022/08/25 12:22:22;;;;;;;2.78;2.05;;;37.00;50.10;;;;;;4917423;29;20206;-76
2022/08/25 12:24:56;;;;;;;2.63;2.22;;;37.00;50.10;;;;;;4917926;29;20174;-76
2022/08/25 12:27:59;;;;;;;2.30;2.10;;;37.10;49.20;;;;;;4917004;29;20177;-76
2022/08/25 12:30:31;;;;;;;2.28;2.08;;;37.20;48.70;;;;;;4902105;29;20205;-76
2022/08/25 12:33:39;;;;;;;3.72;2.20;;;37.40;48.90;;;;;;4901413;29;20174;-75
2022/08/25 12:36:08;;;;;;;2.10;1.92;;;37.40;47.60;;;;;;4906988;29;20212;-76
2022/08/25 12:38:41;;;;;;;2.80;2.33;;;37.50;48.90;;;;;;4936252;29;20188;-75
2022/08/25 12:41:26;;;;;;;4.60;2.10;;;37.40;48.00;;;;;;4935904;29;20220;-75
2022/08/25 12:44:07;;;;;;;2.97;2.30;;;37.30;47.70;;;;;;4883780;29;20203;-76
2022/08/25 12:46:37;;;;;;;2.03;1.90;;;37.30;48.20;;;;;;4917396;29;20230;-75
2022/08/25 12:49:44;;;;;;;2.33;2.10;;;37.20;47.80;;;;;;4900023;29;20205;-74
2022/08/25 12:52:17;;;;;;;2.35;2.00;;;37.10;47.80;;;;;;4918680;29;20204;-74
2022/08/25 12:54:48;;;;;;;2.72;2.10;;;37.10;47.80;;;;;;4902919;29;20177;-74
2022/08/25 12:57:25;;;;;;;3.25;2.17;;;37.10;47.90;;;;;;4897272;29;20211;-84
2022/08/25 12:59:55;;;;;;;2.60;2.10;;;37.20;47.10;;;;;;4896285;29;20349;-74
2022/08/25 13:02:52;;;;;;;4.20;2.20;;;37.30;47.50;;;;;;4900726;29;20194;-74
2022/08/25 13:05:44;;;;;;;2.45;2.10;;;37.40;46.60;;;;;;4908412;29;20198;-74
2022/08/25 13:08:19;;;;;;;2.47;2.05;;;37.40;46.10;;;;;;4915263;29;20174;-73
2022/08/25 13:11:03;;;;;;;2.58;2.33;;;37.40;47.20;;;;;;4901843;29;20236;-74
2022/08/25 13:13:47;;;;;;;5.07;2.40;;;37.50;47.30;;;;;;4911074;29;20253;-75
2022/08/25 13:16:32;;;;;;;3.72;2.08;;;37.60;45.90;;;;;;4923160;29;20197;-75
2022/08/25 13:19:03;;;;;;;2.13;1.83;;;37.70;45.40;;;;;;4898779;29;20177;-76
2022/08/25 13:21:36;;;;;;;2.08;1.88;;;37.70;46.50;;;;;;4899134;29;20202;-72
2022/08/25 13:24:09;;;;;;;2.28;2.08;;;37.80;45.80;;;;;;4889741;29;20203;-69